Time;durP1;ratioP1;P1;durP2;ratioP2;P2;SDS_P1;SDS_P2;PMS_P1;PMS_P2;Temp;Humidity;BMP_temperature;BMP_pressure;BME280_temperature;BME280_humidity;BME280_pressure;Samples;Min_cycle;Max_cycle;Signal;HPM_P1;HPM_P2
2022/12/09 00:00:30;;;;;;;3.17;2.88;;;-3.10;99.90;;;;;;5061827;28;20089;-76
2022/12/09 00:02:56;;;;;;;0.30;0.30;;;-3.10;99.90;;;;;;5063259;28;20432;-80
2022/12/09 00:05:22;;;;;;;0.40;0.40;;;-3.10;99.90;;;;;;5059570;28;20066;-76
2022/12/09 00:07:48;;;;;;;0.00;0.00;;;-3.10;99.90;;;;;;5055380;28;20790;-76
2022/12/09 00:10:13;;;;;;;0.40;0.40;;;-3.20;99.90;;;;;;5051288;28;20124;-76
2022/12/09 00:12:39;;;;;;;0.47;0.47;;;-3.20;99.90;;;;;;5054275;28;20076;-76
2022/12/09 00:15:05;;;;;;;0.10;0.10;;;-3.20;99.90;;;;;;5063502;28;20044;-76
2022/12/09 00:17:31;;;;;;;0.87;0.37;;;-3.20;99.90;;;;;;5063168;28;20048;-76
2022/12/09 00:19:56;;;;;;;0.00;0.00;;;-3.20;99.90;;;;;;5063646;28;20044;-76
2022/12/09 00:22:24;;;;;;;0.13;0.13;;;-3.30;99.90;;;;;;5063047;28;20084;-76
2022/12/09 00:24:50;;;;;;;2.17;0.83;;;-3.30;99.90;;;;;;5063131;28;20052;-77
2022/12/09 00:27:15;;;;;;;0.10;0.10;;;-3.30;99.90;;;;;;5062930;28;20294;-77
2022/12/09 00:29:41;;;;;;;0.75;0.50;;;-3.30;99.90;;;;;;5063229;28;20555;-76
2022/12/09 00:32:07;;;;;;;0.00;0.00;;;-3.10;99.90;;;;;;5062850;28;20044;-76
2022/12/09 00:34:32;;;;;;;0.10;0.10;;;-3.20;99.90;;;;;;5062663;28;20123;-76
2022/12/09 00:36:58;;;;;;;0.03;0.03;;;-3.20;99.90;;;;;;5062811;28;20040;-76
2022/12/09 00:39:23;;;;;;;1.03;0.87;;;-3.20;99.90;;;;;;5062320;28;20053;-76
2022/12/09 00:41:50;;;;;;;1.00;1.00;;;-3.20;99.90;;;;;;5062998;28;20052;-76
2022/12/09 00:44:16;;;;;;;0.00;0.00;;;-3.20;99.90;;;;;;5062542;28;20044;-76
2022/12/09 00:46:41;;;;;;;0.10;0.10;;;-3.20;99.90;;;;;;5062830;28;20041;-76
2022/12/09 00:49:07;;;;;;;0.00;0.00;;;-3.30;99.90;;;;;;5062183;28;20055;-76
2022/12/09 00:51:33;;;;;;;0.00;0.00;;;-3.30;99.90;;;;;;5062491;28;20044;-76
2022/12/09 00:53:58;;;;;;;0.57;0.57;;;-3.40;99.90;;;;;;5062879;28;20036;-76
2022/12/09 00:56:27;;;;;;;0.00;0.00;;;-3.40;99.90;;;;;;5062733;28;20095;-76
2022/12/09 00:58:53;;;;;;;0.00;0.00;;;-3.50;99.90;;;;;;5062659;28;20045;-76
2022/12/09 01:01:18;;;;;;;0.33;0.33;;;-3.50;99.90;;;;;;5044975;28;20067;-76
2022/12/09 01:03:44;;;;;;;0.00;0.00;;;-3.50;99.90;;;;;;5062724;28;20068;-76
2022/12/09 01:06:16;;;;;;;0.00;0.00;;;-3.40;99.90;;;;;;5063913;28;20496;-75
2022/12/09 01:08:42;;;;;;;0.10;0.10;;;-3.30;99.90;;;;;;5066653;28;20182;-76
2022/12/09 01:11:17;;;;;;;0.10;0.10;;;-3.20;99.90;;;;;;5066785;28;20071;-76
2022/12/09 01:13:43;;;;;;;1.60;1.50;;;-3.10;99.90;;;;;;5066594;28;20566;-76
2022/12/09 01:16:24;;;;;;;0.00;0.00;;;-3.00;99.90;;;;;;5066610;28;20282;-76
2022/12/09 01:18:50;;;;;;;0.00;0.00;;;-3.10;99.90;;;;;;5066699;28;20084;-76
2022/12/09 01:21:17;;;;;;;0.00;0.00;;;-3.00;99.90;;;;;;5066374;28;20045;-76
2022/12/09 01:23:42;;;;;;;0.55;0.43;;;-3.00;99.90;;;;;;5066373;28;20048;-76
2022/12/09 01:26:08;;;;;;;0.00;0.00;;;-3.10;99.90;;;;;;5066215;28;20265;-76
2022/12/09 01:28:36;;;;;;;0.20;0.20;;;-3.20;99.90;;;;;;5066151;28;20056;-76
2022/12/09 01:31:10;;;;;;;0.40;0.40;;;-3.30;99.90;;;;;;5066497;28;20048;-76
2022/12/09 01:33:36;;;;;;;0.00;0.00;;;-3.30;99.90;;;;;;5066300;28;20051;-76
2022/12/09 01:36:07;;;;;;;0.03;0.03;;;-3.30;99.90;;;;;;5066402;28;20049;-76
2022/12/09 01:38:33;;;;;;;0.30;0.30;;;-3.30;99.90;;;;;;5066084;28;20040;-76
2022/12/09 01:40:59;;;;;;;0.90;0.87;;;-3.30;99.90;;;;;;5065879;28;20056;-76
2022/12/09 01:43:24;;;;;;;3.73;0.97;;;-3.40;99.90;;;;;;5066090;28;20045;-76
2022/12/09 01:45:50;;;;;;;0.38;0.38;;;-3.30;99.90;;;;;;5065659;28;20079;-76
2022/12/09 01:48:19;;;;;;;0.00;0.00;;;-3.10;99.90;;;;;;5065932;28;20146;-76
2022/12/09 01:51:01;;;;;;;0.00;0.00;;;-3.20;99.90;;;;;;5065844;28;20513;-76
2022/12/09 01:53:33;;;;;;;0.00;0.00;;;-3.20;99.90;;;;;;5065753;28;20524;-76
2022/12/09 01:56:04;;;;;;;0.00;0.00;;;-3.10;99.90;;;;;;5065643;28;20576;-76
2022/12/09 01:58:30;;;;;;;0.20;0.20;;;-3.10;99.90;;;;;;5065626;28;20045;-76
2022/12/09 02:00:55;;;;;;;0.20;0.20;;;-3.00;99.90;;;;;;5065208;28;20047;-75
2022/12/09 02:03:21;;;;;;;0.40;0.40;;;-2.90;99.90;;;;;;5065259;28;20040;-76
2022/12/09 02:05:47;;;;;;;0.00;0.00;;;-2.80;99.90;;;;;;5065148;28;20528;-75
2022/12/09 02:08:17;;;;;;;0.00;0.00;;;-2.70;99.90;;;;;;5065215;28;20393;-74
2022/12/09 02:11:17;;;;;;;1.60;1.20;;;-2.60;99.90;;;;;;5065565;28;20063;-75
2022/12/09 02:13:53;;;;;;;1.10;1.00;;;-2.60;99.90;;;;;;5065265;28;20462;-75
2022/12/09 02:16:23;;;;;;;0.15;0.15;;;-2.50;99.90;;;;;;5065504;28;20047;-75
2022/12/09 02:18:51;;;;;;;0.77;0.77;;;-2.50;99.90;;;;;;5064957;28;20052;-75
2022/12/09 02:21:31;;;;;;;0.00;0.00;;;-2.50;99.90;;;;;;5065591;28;20040;-75
2022/12/09 02:24:14;;;;;;;0.20;0.20;;;-2.50;99.90;;;;;;5065314;28;20060;-75
2022/12/09 02:26:50;;;;;;;1.37;0.53;;;-2.50;99.90;;;;;;5065356;28;20053;-75
2022/12/09 02:29:53;;;;;;;0.80;0.80;;;-2.60;99.90;;;;;;5064988;28;20087;-75
2022/12/09 02:32:50;;;;;;;0.55;0.50;;;-2.60;99.90;;;;;;4963935;28;20050;-75
2022/12/09 02:35:38;;;;;;;0.20;0.20;;;-2.70;99.90;;;;;;5065520;28;20048;-75
2022/12/09 02:38:18;;;;;;;0.05;0.05;;;-2.80;99.90;;;;;;5064450;28;20298;-75
2022/12/09 02:41:16;;;;;;;0.00;0.00;;;-2.80;99.90;;;;;;5064003;28;20045;-75
2022/12/09 02:43:46;;;;;;;0.05;0.05;;;-2.80;99.90;;;;;;5059516;28;20103;-75
2022/12/09 02:46:13;;;;;;;0.10;0.10;;;-2.90;99.90;;;;;;5064017;28;20050;-75
2022/12/09 02:48:45;;;;;;;0.10;0.10;;;-2.90;99.90;;;;;;5063474;28;20048;-75
2022/12/09 02:51:15;;;;;;;0.30;0.30;;;-3.00;99.90;;;;;;5063723;28;20068;-75
2022/12/09 02:53:43;;;;;;;0.03;0.03;;;-2.90;99.90;;;;;;5064115;28;20055;-75
2022/12/09 02:56:10;;;;;;;0.30;0.30;;;-2.90;99.90;;;;;;5063674;28;20044;-75
2022/12/09 02:58:36;;;;;;;0.70;0.70;;;-2.80;99.90;;;;;;5063193;28;20520;-75
2022/12/09 03:01:02;;;;;;;0.10;0.10;;;-2.60;99.90;;;;;;5065240;28;20048;-75
2022/12/09 03:03:32;;;;;;;0.00;0.00;;;-2.50;99.90;;;;;;5064015;28;20072;-74
2022/12/09 03:06:07;;;;;;;0.13;0.13;;;-2.50;99.90;;;;;;5063471;28;20049;-75
2022/12/09 03:08:41;;;;;;;0.30;0.30;;;-2.40;99.90;;;;;;5063283;28;20044;-75
2022/12/09 03:11:14;;;;;;;0.10;0.10;;;-2.30;99.90;;;;;;5063418;28;20093;-75
2022/12/09 03:14:02;;;;;;;0.00;0.00;;;-2.10;99.90;;;;;;5063347;28;20406;-75
2022/12/09 03:16:49;;;;;;;0.00;0.00;;;-2.20;99.90;;;;;;5062700;28;20490;-75
2022/12/09 03:19:23;;;;;;;0.30;0.30;;;-2.30;99.90;;;;;;5062621;28;20052;-75
2022/12/09 03:21:53;;;;;;;3.87;1.43;;;-2.30;99.90;;;;;;5062848;28;20402;-75
2022/12/09 03:24:37;;;;;;;0.57;0.40;;;-2.30;99.90;;;;;;5061229;28;20053;-75
2022/12/09 03:27:08;;;;;;;0.10;0.10;;;-2.30;99.90;;;;;;5061558;28;20075;-75
2022/12/09 03:29:38;;;;;;;0.60;0.60;;;-2.40;99.90;;;;;;5065883;28;20045;-75
2022/12/09 03:32:04;;;;;;;0.00;0.00;;;-2.40;99.90;;;;;;5042966;28;20083;-75
2022/12/09 03:34:35;;;;;;;0.00;0.00;;;-2.60;99.90;;;;;;5043149;28;20546;-75
2022/12/09 03:37:03;;;;;;;2.13;1.95;;;-2.60;99.90;;;;;;5042892;28;20482;-75
2022/12/09 03:39:33;;;;;;;0.30;0.30;;;-2.70;99.90;;;;;;5057757;28;20048;-76
2022/12/09 03:42:02;;;;;;;0.50;0.50;;;-2.80;99.90;;;;;;5063855;28;20094;-76
2022/12/09 03:44:40;;;;;;;0.50;0.50;;;-2.90;99.90;;;;;;5063790;28;20044;-75
2022/12/09 03:47:07;;;;;;;1.00;1.00;;;-3.00;99.90;;;;;;5063960;28;20489;-75
2022/12/09 03:49:33;;;;;;;0.13;0.13;;;-3.10;99.90;;;;;;5063793;28;20072;-76
2022/12/09 03:52:10;;;;;;;0.80;0.75;;;-3.10;99.90;;;;;;5063706;28;20051;-75
2022/12/09 03:54:43;;;;;;;0.10;0.10;;;-3.20;99.90;;;;;;5063813;28;20434;-76
2022/12/09 03:57:15;;;;;;;0.43;0.43;;;-3.30;99.90;;;;;;5063488;28;20064;-76
2022/12/09 03:59:44;;;;;;;0.10;0.10;;;-3.30;99.90;;;;;;5063434;28;20094;-76
2022/12/09 04:02:10;;;;;;;0.30;0.30;;;-3.30;99.90;;;;;;5063137;28;20532;-75
2022/12/09 04:04:39;;;;;;;0.00;0.00;;;-3.30;99.90;;;;;;5063224;28;20051;-76
2022/12/09 04:07:05;;;;;;;0.27;0.27;;;-3.40;99.90;;;;;;5063703;28;20158;-76
2022/12/09 04:09:31;;;;;;;0.10;0.10;;;-3.60;99.90;;;;;;5063894;28;20049;-76
2022/12/09 04:11:57;;;;;;;0.10;0.10;;;-3.70;99.90;;;;;;5064135;28;20049;-75
2022/12/09 04:14:23;;;;;;;1.13;1.07;;;-3.70;99.90;;;;;;5063927;28;20082;-75
2022/12/09 04:16:48;;;;;;;1.27;1.17;;;-3.70;99.90;;;;;;5063728;28;20321;-76
2022/12/09 04:19:14;;;;;;;0.03;0.03;;;-3.70;99.90;;;;;;5062586;28;20040;-75
2022/12/09 04:21:40;;;;;;;0.03;0.03;;;-3.70;99.90;;;;;;5063152;28;20041;-75
2022/12/09 04:24:06;;;;;;;0.00;0.00;;;-3.80;99.90;;;;;;5063512;28;20047;-75
2022/12/09 04:26:32;;;;;;;0.00;0.00;;;-4.00;99.90;;;;;;5063092;28;20053;-76
2022/12/09 04:28:58;;;;;;;0.43;0.43;;;-4.10;99.90;;;;;;5063074;28;20059;-76
2022/12/09 04:31:25;;;;;;;0.00;0.00;;;-4.10;99.90;;;;;;5035023;28;20047;-75
2022/12/09 04:33:50;;;;;;;0.00;0.00;;;-4.20;99.90;;;;;;5043173;28;20043;-76
2022/12/09 04:36:18;;;;;;;1.60;1.07;;;-4.10;99.90;;;;;;5042888;28;20041;-75
2022/12/09 04:38:45;;;;;;;0.47;0.47;;;-4.00;99.90;;;;;;5049012;28;20115;-75
2022/12/09 04:41:11;;;;;;;0.37;0.37;;;-3.90;99.90;;;;;;5061790;28;20049;-76
2022/12/09 04:43:37;;;;;;;0.27;0.27;;;-3.90;99.90;;;;;;5063005;28;20095;-76
2022/12/09 04:46:10;;;;;;;0.00;0.00;;;-4.00;99.90;;;;;;5062784;28;20041;-74
2022/12/09 04:48:36;;;;;;;0.57;0.57;;;-4.00;99.90;;;;;;5063059;28;20037;-75
2022/12/09 04:51:02;;;;;;;0.30;0.30;;;-4.10;99.90;;;;;;5062895;28;20049;-75
2022/12/09 04:53:28;;;;;;;0.00;0.00;;;-3.90;99.90;;;;;;5062556;28;20044;-75
2022/12/09 04:56:05;;;;;;;0.20;0.20;;;-4.30;99.90;;;;;;5063145;28;20037;-75
2022/12/09 04:58:31;;;;;;;0.87;0.87;;;-4.40;99.90;;;;;;5062659;28;20055;-76
2022/12/09 05:00:57;;;;;;;0.10;0.10;;;-4.40;99.90;;;;;;5062861;28;20041;-76
2022/12/09 05:03:23;;;;;;;0.43;0.43;;;-4.30;99.90;;;;;;5062660;28;20048;-75
2022/12/09 05:05:49;;;;;;;0.63;0.53;;;-4.40;99.90;;;;;;5062819;28;20037;-75
2022/12/09 05:08:15;;;;;;;0.00;0.00;;;-4.40;99.90;;;;;;5044183;28;20049;-75
2022/12/09 05:10:48;;;;;;;0.10;0.10;;;-4.40;99.90;;;;;;5062800;28;20048;-75
2022/12/09 05:13:14;;;;;;;0.53;0.40;;;-4.40;99.90;;;;;;5062139;28;20536;-76
2022/12/09 05:15:40;;;;;;;0.00;0.00;;;-4.50;99.90;;;;;;5062485;28;20040;-74
2022/12/09 05:18:05;;;;;;;0.00;0.00;;;-4.50;99.90;;;;;;5062475;28;20041;-75
2022/12/09 05:20:31;;;;;;;0.33;0.33;;;-4.50;99.90;;;;;;5062625;28;20533;-75
2022/12/09 05:22:57;;;;;;;0.00;0.00;;;-4.60;99.90;;;;;;5062547;28;20045;-75
2022/12/09 05:25:22;;;;;;;0.00;0.00;;;-4.60;99.90;;;;;;5062880;28;20662;-75
2022/12/09 05:27:48;;;;;;;1.43;1.07;;;-4.70;99.90;;;;;;5062429;28;20064;-75
2022/12/09 05:30:14;;;;;;;2.67;1.20;;;-4.70;99.90;;;;;;5062668;28;20041;-75
2022/12/09 05:32:40;;;;;;;0.00;0.00;;;-4.60;99.90;;;;;;5062390;28;20518;-75
2022/12/09 05:35:06;;;;;;;0.00;0.00;;;-4.50;99.90;;;;;;5062631;28;20037;-75
2022/12/09 05:37:32;;;;;;;0.20;0.20;;;-4.50;99.90;;;;;;5062117;28;20063;-74
2022/12/09 05:39:57;;;;;;;2.83;2.20;;;-4.40;99.90;;;;;;5044333;28;20052;-75
2022/12/09 05:42:23;;;;;;;2.47;0.73;;;-4.40;99.90;;;;;;5061977;28;20591;-75
2022/12/09 05:44:49;;;;;;;0.47;0.47;;;-4.40;99.90;;;;;;5062586;28;20123;-75
2022/12/09 05:47:14;;;;;;;0.20;0.20;;;-4.40;99.90;;;;;;5062414;28;20044;-75
2022/12/09 05:49:40;;;;;;;0.00;0.00;;;-4.50;99.90;;;;;;5062167;28;20055;-74
2022/12/09 05:52:06;;;;;;;0.47;0.47;;;-4.50;99.90;;;;;;5063534;28;20098;-75
2022/12/09 05:54:31;;;;;;;3.10;1.90;;;-4.50;99.90;;;;;;5065980;28;20126;-75
2022/12/09 05:56:59;;;;;;;0.00;0.00;;;-4.50;99.90;;;;;;5065891;28;20650;-75
2022/12/09 05:59:25;;;;;;;0.13;0.13;;;-4.50;99.90;;;;;;5065696;28;20044;-76
2022/12/09 06:01:51;;;;;;;0.00;0.00;;;-4.40;99.90;;;;;;5065493;28;20045;-75
2022/12/09 06:04:22;;;;;;;0.20;0.20;;;-4.40;99.90;;;;;;5065834;28;20040;-76
2022/12/09 06:06:47;;;;;;;0.20;0.20;;;-4.40;99.90;;;;;;5030976;28;20440;-75
2022/12/09 06:09:13;;;;;;;1.93;0.53;;;-4.50;99.90;;;;;;5065038;28;20099;-76
2022/12/09 06:11:39;;;;;;;0.03;0.03;;;-4.50;99.90;;;;;;5066203;28;20055;-76
2022/12/09 06:14:10;;;;;;;0.40;0.40;;;-4.50;99.90;;;;;;5064498;28;20399;-75
2022/12/09 06:16:36;;;;;;;0.10;0.10;;;-4.50;99.90;;;;;;5062848;28;20048;-75
2022/12/09 06:19:02;;;;;;;0.37;0.37;;;-4.40;99.90;;;;;;5062486;28;20072;-76
2022/12/09 06:21:28;;;;;;;0.50;0.50;;;-4.00;99.90;;;;;;5062462;28;20043;-74
2022/12/09 06:23:54;;;;;;;2.80;0.53;;;-4.40;99.90;;;;;;5062500;28;20044;-75
2022/12/09 06:26:21;;;;;;;0.20;0.20;;;-4.50;99.90;;;;;;5062166;28;20422;-75
2022/12/09 06:28:47;;;;;;;0.10;0.10;;;-4.50;99.90;;;;;;5062769;28;20448;-75
2022/12/09 06:31:13;;;;;;;2.00;1.50;;;-4.60;99.90;;;;;;5062569;28;20055;-76
2022/12/09 06:33:39;;;;;;;0.00;0.00;;;-4.50;99.90;;;;;;5063159;28;20155;-75
2022/12/09 06:36:05;;;;;;;0.23;0.23;;;-4.50;99.90;;;;;;5064717;28;20323;-76
2022/12/09 06:38:30;;;;;;;0.10;0.10;;;-4.40;99.90;;;;;;5064551;28;20041;-75
2022/12/09 06:40:56;;;;;;;0.00;0.00;;;-4.40;99.90;;;;;;5065131;28;20044;-75
2022/12/09 06:43:22;;;;;;;0.17;0.17;;;-4.40;99.90;;;;;;5065278;28;20076;-75
2022/12/09 06:45:47;;;;;;;0.10;0.10;;;-4.40;99.90;;;;;;5064959;28;20119;-75
2022/12/09 06:48:13;;;;;;;0.50;0.50;;;-4.40;99.90;;;;;;5065134;28;20102;-75
2022/12/09 06:50:39;;;;;;;0.97;0.97;;;-4.30;99.90;;;;;;5064827;28;20044;-75
2022/12/09 06:53:05;;;;;;;0.07;0.07;;;-4.20;99.90;;;;;;5064750;28;20049;-75
2022/12/09 06:55:30;;;;;;;1.83;1.70;;;-4.20;99.90;;;;;;5064484;28;20036;-75
2022/12/09 06:57:58;;;;;;;0.10;0.10;;;-4.10;99.90;;;;;;5064478;28;20067;-75
2022/12/09 07:00:24;;;;;;;0.30;0.30;;;-4.10;99.90;;;;;;5043477;28;20127;-75
2022/12/09 07:02:51;;;;;;;0.00;0.00;;;-4.10;99.90;;;;;;5063421;28;20121;-75
2022/12/09 07:05:17;;;;;;;0.37;0.37;;;-3.90;99.90;;;;;;5052900;28;20593;-75
2022/12/09 07:07:43;;;;;;;0.00;0.00;;;-4.10;99.90;;;;;;5052315;28;20091;-75
2022/12/09 07:10:09;;;;;;;0.70;0.70;;;-4.10;99.90;;;;;;5055252;28;20110;-75
2022/12/09 07:12:35;;;;;;;2.57;0.87;;;-4.00;99.90;;;;;;5062282;28;20080;-75
2022/12/09 07:15:00;;;;;;;0.57;0.50;;;-3.90;99.90;;;;;;5062214;28;20091;-75
2022/12/09 07:17:27;;;;;;;2.43;2.23;;;-3.90;99.90;;;;;;5061540;28;20080;-75
2022/12/09 07:19:52;;;;;;;0.90;0.83;;;-3.90;99.90;;;;;;5061589;28;20076;-75
2022/12/09 07:22:18;;;;;;;0.00;0.00;;;-3.80;99.90;;;;;;5061607;28;20436;-74
2022/12/09 07:24:44;;;;;;;0.57;0.57;;;-3.80;99.90;;;;;;5061471;28;20044;-75
2022/12/09 07:27:13;;;;;;;0.67;0.67;;;-3.90;99.90;;;;;;5061103;28;20135;-75
2022/12/09 07:29:38;;;;;;;0.10;0.10;;;-3.90;99.90;;;;;;5061003;28;20052;-75
2022/12/09 07:32:05;;;;;;;6.30;2.80;;;-3.90;99.90;;;;;;5058983;28;20455;-75
2022/12/09 07:34:30;;;;;;;0.00;0.00;;;-3.90;99.90;;;;;;5058582;28;20047;-74
2022/12/09 07:36:56;;;;;;;0.20;0.20;;;-3.80;99.90;;;;;;5058420;28;20036;-75
2022/12/09 07:39:22;;;;;;;0.83;0.83;;;-3.80;99.90;;;;;;5058855;28;20094;-75
2022/12/09 07:41:55;;;;;;;1.50;1.40;;;-3.80;99.90;;;;;;5058466;28;20047;-75
2022/12/09 07:44:22;;;;;;;0.23;0.23;;;-3.70;99.90;;;;;;5059320;28;20059;-75
2022/12/09 07:46:48;;;;;;;0.10;0.10;;;-3.70;99.90;;;;;;5058575;28;20470;-75
2022/12/09 07:49:14;;;;;;;0.30;0.30;;;-3.70;99.90;;;;;;5058871;28;20040;-75
2022/12/09 07:51:40;;;;;;;0.77;0.77;;;-3.70;99.90;;;;;;5058411;28;20040;-75
2022/12/09 07:54:09;;;;;;;0.83;0.83;;;-3.70;99.90;;;;;;5058555;28;20402;-75
2022/12/09 07:56:36;;;;;;;0.10;0.10;;;-3.70;99.90;;;;;;5058569;28;20503;-75
2022/12/09 07:59:05;;;;;;;0.20;0.20;;;-3.70;99.90;;;;;;5058805;28;20064;-75
2022/12/09 08:01:31;;;;;;;0.20;0.20;;;-3.80;99.90;;;;;;5058910;28;20094;-75
2022/12/09 08:03:57;;;;;;;0.20;0.20;;;-3.80;99.90;;;;;;5058440;28;20090;-75
2022/12/09 08:06:26;;;;;;;0.10;0.10;;;-3.80;99.90;;;;;;5058317;28;20052;-75
2022/12/09 08:08:52;;;;;;;0.70;0.70;;;-3.70;99.90;;;;;;5058309;28;20506;-74
2022/12/09 08:11:24;;;;;;;1.60;1.30;;;-3.60;99.90;;;;;;5058652;28;20100;-74
2022/12/09 08:13:50;;;;;;;1.33;1.30;;;-3.50;99.90;;;;;;5058609;28;20055;-74
2022/12/09 08:16:19;;;;;;;0.10;0.10;;;-3.40;99.90;;;;;;5058119;28;20052;-74
2022/12/09 08:18:46;;;;;;;2.20;1.90;;;-3.30;99.90;;;;;;5058179;28;20048;-74
2022/12/09 08:21:15;;;;;;;0.50;0.50;;;-3.20;99.90;;;;;;5058106;28;20615;-74
2022/12/09 08:23:41;;;;;;;2.00;1.60;;;-3.20;99.90;;;;;;5058477;28;20135;-74
2022/12/09 08:26:09;;;;;;;0.10;0.10;;;-3.10;99.90;;;;;;5058336;28;20571;-74
2022/12/09 08:28:35;;;;;;;0.10;0.10;;;-3.00;99.90;;;;;;5059135;28;20502;-74
2022/12/09 08:31:10;;;;;;;1.50;1.10;;;-2.90;99.90;;;;;;5059413;28;20351;-74
2022/12/09 08:33:36;;;;;;;0.10;0.10;;;-2.80;99.90;;;;;;5059352;28;20086;-74
2022/12/09 08:36:06;;;;;;;0.87;0.87;;;-2.70;99.90;;;;;;5060560;28;20539;-74
2022/12/09 08:38:32;;;;;;;0.20;0.20;;;-2.60;99.90;;;;;;5060437;28;20048;-74
2022/12/09 08:40:57;;;;;;;0.27;0.27;;;-2.50;99.90;;;;;;5060604;28;20094;-74
2022/12/09 08:43:23;;;;;;;0.20;0.20;;;-2.40;99.90;;;;;;5059488;28;20489;-74
2022/12/09 08:45:48;;;;;;;0.83;0.83;;;-2.30;99.90;;;;;;5059435;28;20036;-74
2022/12/09 08:48:14;;;;;;;0.65;0.50;;;-2.30;99.90;;;;;;5058898;28;20041;-74
2022/12/09 08:50:40;;;;;;;1.40;1.30;;;-2.30;99.90;;;;;;5059607;28;20093;-74
2022/12/09 08:53:05;;;;;;;0.20;0.20;;;-2.30;99.90;;;;;;5059889;28;20055;-74
2022/12/09 08:55:31;;;;;;;0.30;0.30;;;-2.30;99.90;;;;;;5059871;28;20040;-74
2022/12/09 08:57:57;;;;;;;0.50;0.50;;;-2.20;99.90;;;;;;5060522;28;20052;-74
2022/12/09 09:00:22;;;;;;;0.23;0.23;;;-2.10;99.90;;;;;;5060743;28;20048;-74
2022/12/09 09:02:48;;;;;;;0.67;0.67;;;-2.10;99.90;;;;;;5060497;28;20088;-74
2022/12/09 09:05:14;;;;;;;0.10;0.10;;;-1.90;99.90;;;;;;5060509;28;20045;-74
2022/12/09 09:07:40;;;;;;;1.50;1.40;;;-1.70;99.90;;;;;;5060571;28;20076;-74
2022/12/09 09:10:06;;;;;;;0.83;0.83;;;-1.50;99.90;;;;;;5060426;28;20051;-74
2022/12/09 09:12:32;;;;;;;2.67;0.57;;;-1.40;99.90;;;;;;5060510;28;20055;-74
2022/12/09 09:14:58;;;;;;;0.30;0.30;;;-1.20;99.90;;;;;;5060589;28;20044;-74
2022/12/09 09:17:24;;;;;;;1.20;1.20;;;-1.00;99.90;;;;;;5060618;28;20563;-74
2022/12/09 09:19:49;;;;;;;0.83;0.83;;;-0.80;99.90;;;;;;5060429;28;20324;-74
2022/12/09 09:22:15;;;;;;;2.22;2.03;;;-0.70;99.90;;;;;;5060594;28;20110;-74
2022/12/09 09:24:41;;;;;;;0.82;0.82;;;-0.60;99.90;;;;;;5060497;28;20044;-75
2022/12/09 09:27:07;;;;;;;1.20;0.97;;;-0.60;99.90;;;;;;5061592;28;20056;-75
2022/12/09 09:29:33;;;;;;;0.63;0.63;;;-0.50;99.90;;;;;;5064347;28;20106;-75
2022/12/09 09:31:59;;;;;;;2.40;1.27;;;-0.50;99.90;;;;;;5064140;28;20048;-75
2022/12/09 09:34:26;;;;;;;3.27;2.00;;;-0.40;99.90;;;;;;5064387;28;20504;-74
2022/12/09 09:36:53;;;;;;;1.17;1.13;;;-0.30;99.90;;;;;;5063962;28;20501;-74
2022/12/09 09:39:19;;;;;;;3.85;3.60;;;-0.20;99.90;;;;;;5064480;28;20127;-74
2022/12/09 09:41:54;;;;;;;0.47;0.47;;;0.00;99.90;;;;;;5063912;28;20501;-75
2022/12/09 09:44:47;;;;;;;1.00;0.95;;;0.10;99.90;;;;;;5063971;28;20041;-75
2022/12/09 09:47:32;;;;;;;1.55;1.45;;;0.30;99.90;;;;;;5061990;28;20461;-75
2022/12/09 09:50:02;;;;;;;0.88;0.88;;;0.30;99.90;;;;;;5063888;28;20091;-75
2022/12/09 09:52:29;;;;;;;1.25;1.15;;;0.40;99.90;;;;;;5063896;28;20048;-75
2022/12/09 09:54:56;;;;;;;0.60;0.60;;;0.40;99.90;;;;;;5063928;28;20036;-75
2022/12/09 09:57:35;;;;;;;1.30;1.20;;;0.40;99.90;;;;;;5063581;28;20044;-75
2022/12/09 10:00:09;;;;;;;6.57;3.20;;;0.40;99.90;;;;;;5063729;28;20082;-75
2022/12/09 10:02:50;;;;;;;1.85;1.65;;;0.40;99.90;;;;;;5063656;28;20127;-75
2022/12/09 10:05:25;;;;;;;1.60;1.05;;;0.40;99.90;;;;;;5064137;28;20055;-75
2022/12/09 10:07:55;;;;;;;1.90;1.33;;;0.40;99.90;;;;;;5063364;28;20059;-75
2022/12/09 10:10:27;;;;;;;3.50;1.73;;;0.40;99.90;;;;;;5063888;28;20071;-75
2022/12/09 10:13:17;;;;;;;1.33;1.25;;;0.40;99.90;;;;;;5063541;28;20055;-75
2022/12/09 10:16:12;;;;;;;1.55;1.45;;;0.50;99.90;;;;;;5063662;28;20494;-75
2022/12/09 10:19:02;;;;;;;0.45;0.45;;;0.40;99.90;;;;;;5057727;28;20049;-75
2022/12/09 10:21:31;;;;;;;1.93;1.83;;;0.40;99.90;;;;;;5061053;28;20045;-75
2022/12/09 10:24:05;;;;;;;0.67;0.67;;;0.40;99.90;;;;;;5060582;28;20053;-75
2022/12/09 10:26:31;;;;;;;0.50;0.50;;;0.40;99.90;;;;;;5060441;28;20067;-75
2022/12/09 10:29:18;;;;;;;1.45;1.17;;;0.40;99.90;;;;;;5060775;28;20123;-75
2022/12/09 10:31:44;;;;;;;1.67;1.27;;;0.50;99.90;;;;;;5060814;28;20389;-75
2022/12/09 10:34:12;;;;;;;2.05;1.85;;;0.50;99.90;;;;;;5060845;28;20044;-75
2022/12/09 10:36:43;;;;;;;0.85;0.68;;;0.40;99.90;;;;;;5061043;28;20040;-75
2022/12/09 10:39:17;;;;;;;3.40;2.40;;;0.40;99.90;;;;;;5059571;28;20052;-75
2022/12/09 10:44:31;;;;;;;0.20;0.20;;;0.50;99.90;;;;;;5060610;28;20175;-75
2022/12/09 10:47:06;;;;;;;0.63;0.63;;;0.50;99.90;;;;;;5060569;28;20119;-75
2022/12/09 10:49:34;;;;;;;0.30;0.30;;;0.50;99.90;;;;;;5060686;28;20040;-75
2022/12/09 10:52:00;;;;;;;0.45;0.45;;;0.50;99.90;;;;;;5060316;28;20135;-75
2022/12/09 10:54:35;;;;;;;0.77;0.77;;;0.50;99.90;;;;;;5060441;28;20493;-75
2022/12/09 10:57:25;;;;;;;0.57;0.57;;;0.50;99.90;;;;;;5054107;28;20044;-75
2022/12/09 11:00:18;;;;;;;0.45;0.45;;;0.60;99.90;;;;;;5040573;28;20399;-76
2022/12/09 11:02:51;;;;;;;0.40;0.40;;;0.50;99.90;;;;;;5040620;28;20045;-75
2022/12/09 11:05:26;;;;;;;0.20;0.20;;;0.50;99.90;;;;;;5040109;28;20045;-76
2022/12/09 11:07:54;;;;;;;2.13;1.38;;;0.50;99.90;;;;;;5039818;28;20375;-76
2022/12/09 11:10:25;;;;;;;2.38;1.63;;;0.50;99.90;;;;;;5040341;28;20040;-76
2022/12/09 11:13:08;;;;;;;3.80;1.47;;;0.60;99.90;;;;;;5040442;28;20048;-75
2022/12/09 11:15:42;;;;;;;0.38;0.38;;;0.60;99.90;;;;;;5040006;28;20059;-76
2022/12/09 11:18:18;;;;;;;0.68;0.68;;;0.60;99.90;;;;;;5039963;28;20041;-76
2022/12/09 11:21:05;;;;;;;1.20;1.10;;;0.60;99.90;;;;;;5039525;28;20095;-76
2022/12/09 11:23:32;;;;;;;2.63;1.37;;;0.60;99.90;;;;;;5039609;28;20130;-76
2022/12/09 11:26:02;;;;;;;1.00;0.85;;;0.60;99.90;;;;;;5039942;28;20071;-76
2022/12/09 11:28:37;;;;;;;2.53;2.10;;;0.90;99.90;;;;;;5039815;28;20048;-76
2022/12/09 11:31:15;;;;;;;2.20;2.00;;;0.60;99.90;;;;;;5021932;28;20056;-76
2022/12/09 11:33:49;;;;;;;6.03;2.70;;;0.60;99.90;;;;;;5039964;28;20053;-75
2022/12/09 11:36:22;;;;;;;1.27;1.15;;;0.60;99.90;;;;;;5039747;28;20051;-76
2022/12/09 11:38:51;;;;;;;5.97;2.40;;;0.60;99.90;;;;;;5039354;28;20045;-76
2022/12/09 11:44:31;;;;;;;2.70;1.90;;;0.60;99.90;;;;;;5039668;28;20067;-75
2022/12/09 11:47:06;;;;;;;1.42;1.20;;;0.70;99.90;;;;;;5039745;28;20047;-75
2022/12/09 11:49:35;;;;;;;0.23;0.23;;;0.70;99.90;;;;;;5039526;28;20707;-76
2022/12/09 11:52:05;;;;;;;0.40;0.40;;;0.70;99.90;;;;;;5038989;28;20143;-76
2022/12/09 11:54:44;;;;;;;1.25;0.80;;;0.60;99.90;;;;;;5039329;28;20049;-76
2022/12/09 11:57:40;;;;;;;1.52;1.45;;;0.60;99.90;;;;;;5039316;28;20144;-76
2022/12/09 12:00:18;;;;;;;2.55;1.75;;;0.70;99.90;;;;;;5039586;28;20049;-76
2022/12/09 12:03:11;;;;;;;1.90;1.00;;;0.60;99.90;;;;;;5039246;28;20049;-76
2022/12/09 12:05:41;;;;;;;1.20;1.10;;;0.60;99.90;;;;;;5039495;28;20410;-75
2022/12/09 12:08:13;;;;;;;1.48;1.40;;;0.60;99.90;;;;;;5039035;28;20052;-75
2022/12/09 12:11:10;;;;;;;1.30;1.23;;;0.60;99.90;;;;;;5038918;28;20041;-75
2022/12/09 12:13:43;;;;;;;3.60;2.77;;;0.60;99.90;;;;;;5039293;28;20473;-76
2022/12/09 12:16:33;;;;;;;2.05;1.92;;;0.60;99.90;;;;;;5039236;28;20053;-76
2022/12/09 12:19:15;;;;;;;0.95;0.90;;;0.60;99.90;;;;;;5038644;28;20060;-76
2022/12/09 12:22:14;;;;;;;2.80;2.53;;;0.60;99.90;;;;;;5039319;28;20094;-76
2022/12/09 12:24:51;;;;;;;0.43;0.43;;;0.60;99.90;;;;;;5038746;28;20128;-76
2022/12/09 12:27:32;;;;;;;0.52;0.52;;;0.60;99.90;;;;;;5038721;28;20061;-76
2022/12/09 12:30:14;;;;;;;0.80;0.80;;;0.60;99.90;;;;;;5038867;28;20061;-76
2022/12/09 12:33:13;;;;;;;1.10;0.60;;;0.60;99.90;;;;;;5039160;28;20091;-76
2022/12/09 12:35:47;;;;;;;0.47;0.47;;;0.60;99.90;;;;;;5038659;28;20060;-76
2022/12/09 12:38:33;;;;;;;1.48;1.38;;;0.60;99.90;;;;;;5021168;28;20049;-76
2022/12/09 12:41:27;;;;;;;0.80;0.35;;;0.60;99.90;;;;;;5038707;28;20094;-76
2022/12/09 12:47:11;;;;;;;1.33;1.23;;;0.60;99.90;;;;;;5038714;28;20086;-76
2022/12/09 12:50:07;;;;;;;2.47;2.23;;;0.60;99.90;;;;;;5038527;28;20347;-76
2022/12/09 12:52:38;;;;;;;0.63;0.63;;;0.60;99.90;;;;;;5038741;28;20359;-76
2022/12/09 12:55:20;;;;;;;2.85;0.90;;;0.70;99.90;;;;;;5020487;28;20053;-76
2022/12/09 12:57:55;;;;;;;2.00;1.88;;;0.70;99.90;;;;;;5038528;28;20045;-76
2022/12/09 13:00:24;;;;;;;1.17;1.17;;;0.70;99.90;;;;;;5038582;28;20060;-76
2022/12/09 13:03:17;;;;;;;1.43;1.33;;;0.70;99.90;;;;;;5041319;28;20063;-76
2022/12/09 13:05:48;;;;;;;2.77;2.57;;;0.70;99.90;;;;;;5043224;28;20059;-76
2022/12/09 13:08:36;;;;;;;1.53;1.43;;;0.70;99.90;;;;;;5078358;28;20044;-76
2022/12/09 13:11:36;;;;;;;2.80;2.17;;;0.70;99.90;;;;;;5082567;28;20043;-76
2022/12/09 13:14:08;;;;;;;0.43;0.43;;;0.70;99.90;;;;;;5062040;28;20753;-76
2022/12/09 13:16:38;;;;;;;0.77;0.60;;;0.70;99.90;;;;;;5082341;28;20052;-76